Time;durP1;ratioP1;P1;durP2;ratioP2;P2;SDS_P1;SDS_P2;PMS_P1;PMS_P2;Temp;Humidity;BMP_temperature;BMP_pressure;BME280_temperature;BME280_humidity;BME280_pressure;Samples;Min_cycle;Max_cycle;Signal;HPM_P1;HPM_P2
2023/06/25 00:01:07;;;;;;;0.80;0.35;;;;;;;22.12;100.00;100005.97;7398840;19;20556;-59
2023/06/25 00:03:34;;;;;;;0.77;0.28;;;;;;;22.17;100.00;100005.06;7404559;19;20041;-59
2023/06/25 00:06:00;;;;;;;0.45;0.30;;;;;;;21.04;100.00;100001.59;7398646;19;20019;-60
2023/06/25 00:08:26;;;;;;;1.98;0.52;;;;;;;20.85;100.00;99998.09;7398605;19;20454;-58
2023/06/25 00:10:52;;;;;;;2.95;0.45;;;;;;;20.19;100.00;99999.19;7397048;19;20019;-58
2023/06/25 00:13:18;;;;;;;1.17;0.13;;;;;;;21.30;100.00;99991.53;7400530;19;20018;-59
2023/06/25 00:15:44;;;;;;;1.20;0.47;;;;;;;21.90;100.00;99992.31;7401695;19;20007;-59
2023/06/25 00:18:11;;;;;;;1.83;0.40;;;;;;;21.92;100.00;99984.00;7402334;19;20017;-59
2023/06/25 00:20:37;;;;;;;2.70;0.55;;;;;;;20.73;100.00;99991.09;7397558;19;20014;-59
2023/06/25 00:23:03;;;;;;;1.70;0.30;;;;;;;21.82;100.00;99997.91;7397796;19;20031;-59
2023/06/25 00:25:29;;;;;;;0.50;0.40;;;;;;;21.98;100.00;99981.81;7399746;19;20025;-59
2023/06/25 00:27:57;;;;;;;0.63;0.22;;;;;;;22.80;100.00;99974.59;7403838;19;20014;-59
2023/06/25 00:30:25;;;;;;;5.78;0.55;;;;;;;23.03;100.00;99976.25;7396945;19;20018;-59
2023/06/25 00:32:54;;;;;;;0.50;0.10;;;;;;;22.36;100.00;99967.97;7398457;19;20053;-59
2023/06/25 00:35:24;;;;;;;1.05;0.50;;;;;;;22.45;100.00;99968.25;7397671;19;20021;-59
2023/06/25 00:37:56;;;;;;;3.92;0.95;;;;;;;22.12;100.00;99960.56;7398958;19;20010;-59
2023/06/25 00:40:23;;;;;;;0.95;0.40;;;;;;;21.41;100.00;99960.16;7400033;19;20014;-59
2023/06/25 00:42:56;;;;;;;1.70;0.52;;;;;;;21.68;100.00;99947.41;7397788;19;20003;-59
2023/06/25 00:45:24;;;;;;;1.38;0.28;;;;;;;21.51;100.00;99949.88;7397980;19;20062;-60
2023/06/25 00:47:52;;;;;;;0.32;0.10;;;;;;;22.05;100.00;99952.75;7399843;19;20043;-60
2023/06/25 00:50:21;;;;;;;1.70;0.28;;;;;;;22.28;100.00;99953.72;7401315;19;20034;-60
2023/06/25 00:52:51;;;;;;;0.30;0.25;;;;;;;22.02;100.00;99948.19;7399336;19;20495;-60
2023/06/25 00:55:19;;;;;;;0.98;0.30;;;;;;;21.99;100.00;99943.63;7396419;19;20365;-59
2023/06/25 00:57:46;;;;;;;3.13;1.45;;;;;;;22.05;100.00;99949.91;7395963;19;20032;-60
2023/06/25 01:00:14;;;;;;;1.52;0.15;;;;;;;23.01;100.00;99944.03;7396017;19;20010;-59
2023/06/25 01:03:00;;;;;;;2.53;1.15;;;;;;;22.61;100.00;99941.50;7399453;19;20088;-59
2023/06/25 01:05:31;;;;;;;1.17;0.30;;;;;;;23.43;100.00;99933.28;7396083;19;20015;-59
2023/06/25 01:08:00;;;;;;;0.75;0.13;;;;;;;22.33;100.00;99937.84;7397683;19;20021;-59
2023/06/25 01:10:27;;;;;;;4.60;0.93;;;;;;;23.28;100.00;99931.13;7396280;19;20124;-59
2023/06/25 01:12:54;;;;;;;2.05;0.40;;;;;;;23.94;100.00;99936.81;7396124;19;20014;-60
2023/06/25 01:15:20;;;;;;;2.63;0.80;;;;;;;24.18;100.00;99932.69;7396029;19;20010;-60
2023/06/25 01:17:48;;;;;;;0.50;0.15;;;;;;;24.19;100.00;99917.88;7400006;19;20038;-59
2023/06/25 01:20:15;;;;;;;1.05;0.68;;;;;;;24.28;100.00;99919.44;7395830;19;20014;-60
2023/06/25 01:22:41;;;;;;;4.00;0.25;;;;;;;25.05;100.00;99918.75;7396986;19;20485;-60
2023/06/25 01:25:08;;;;;;;1.17;0.43;;;;;;;23.63;100.00;99918.19;7396199;19;20463;-60
2023/06/25 01:27:35;;;;;;;0.20;0.20;;;;;;;24.42;100.00;99912.19;7401375;19;20014;-60
2023/06/25 01:30:03;;;;;;;1.23;0.65;;;;;;;23.23;100.00;99909.28;7395607;19;20011;-60
2023/06/25 01:32:30;;;;;;;1.13;0.40;;;;;;;22.65;100.00;99918.47;7395685;19;20015;-60
2023/06/25 01:34:56;;;;;;;0.30;0.30;;;;;;;22.26;100.00;99916.59;7396516;19;20079;-60
2023/06/25 01:37:22;;;;;;;1.55;0.30;;;;;;;21.76;100.00;99902.91;7395260;19;20482;-60
2023/06/25 01:39:51;;;;;;;6.43;0.55;;;;;;;22.14;100.00;99909.72;7395778;19;20074;-59
2023/06/25 01:42:18;;;;;;;0.43;0.10;;;;;;;21.62;100.00;99904.25;7395701;19;20006;-59
2023/06/25 01:44:44;;;;;;;0.40;0.10;;;;;;;21.92;100.00;99909.53;7395532;19;20019;-60
2023/06/25 01:47:10;;;;;;;0.63;0.32;;;;;;;21.80;100.00;99903.31;7395879;19;20010;-60
2023/06/25 01:49:37;;;;;;;0.75;0.43;;;;;;;22.00;100.00;99899.78;7395619;19;20074;-60
2023/06/25 01:52:07;;;;;;;3.20;0.70;;;;;;;21.44;100.00;99891.06;7392522;19;20010;-60
2023/06/25 01:54:34;;;;;;;1.92;0.28;;;;;;;21.41;100.00;99889.31;7395303;19;20015;-60
2023/06/25 01:57:01;;;;;;;1.38;0.47;;;;;;;21.63;100.00;99888.78;7394864;19;20010;-60
2023/06/25 01:59:28;;;;;;;0.20;0.15;;;;;;;19.72;100.00;99887.91;7395515;19;20014;-60
2023/06/25 02:01:54;;;;;;;4.57;0.75;;;;;;;21.17;100.00;99889.59;7397617;19;20027;-60
2023/06/25 02:04:20;;;;;;;0.22;0.13;;;;;;;27.36;100.00;99880.94;7394818;19;20006;-60
2023/06/25 02:06:46;;;;;;;0.55;0.13;;;;;;;21.91;100.00;99882.47;7395777;19;20007;-60
2023/06/25 02:09:16;;;;;;;0.50;0.13;;;;;;;21.96;100.00;99879.47;7396781;19;20034;-60
2023/06/25 02:11:42;;;;;;;0.13;0.10;;;;;;;27.72;100.00;99861.72;7395715;19;20342;-60
2023/06/25 02:14:08;;;;;;;0.52;0.40;;;;;;;31.35;96.20;99854.34;7395377;19;20030;-60
2023/06/25 02:16:35;;;;;;;0.77;0.25;;;;;;;26.68;100.00;99856.72;7395062;19;20033;-60
2023/06/25 02:19:01;;;;;;;2.05;0.40;;;;;;;30.58;100.00;99848.47;7399560;19;20033;-60
2023/06/25 02:21:27;;;;;;;6.28;0.70;;;;;;;25.53;100.00;99852.56;7395940;19;20042;-60
2023/06/25 02:23:53;;;;;;;1.17;0.20;;;;;;;24.13;100.00;99845.44;7393369;19;20078;-60
2023/06/25 02:26:19;;;;;;;1.63;0.55;;;;;;;26.16;100.00;99843.75;7394114;19;20011;-60
2023/06/25 02:28:45;;;;;;;0.15;0.13;;;;;;;25.56;100.00;99845.72;7393167;19;20011;-60
2023/06/25 02:31:11;;;;;;;1.67;0.52;;;;;;;27.41;100.00;99839.88;7395645;19;20103;-60
2023/06/25 02:33:38;;;;;;;0.20;0.20;;;;;;;25.61;100.00;99840.34;7393569;19;20037;-60
2023/06/25 02:36:04;;;;;;;0.75;0.32;;;;;;;27.13;100.00;99823.28;7393944;19;20027;-60
2023/06/25 02:38:30;;;;;;;0.98;0.30;;;;;;;29.50;100.00;99824.38;7392871;19;20010;-60
2023/06/25 02:40:56;;;;;;;1.15;0.57;;;;;;;31.52;90.46;99827.38;7395625;19;20017;-60
2023/06/25 02:43:23;;;;;;;1.80;0.45;;;;;;;32.57;83.07;99811.53;7393052;19;20014;-60
2023/06/25 02:45:49;;;;;;;0.57;0.13;;;;;;;32.73;79.59;99809.59;7392551;19;20469;-60
2023/06/25 02:48:15;;;;;;;2.08;0.93;;;;;;;32.66;78.15;99812.78;7396028;19;20433;-60
2023/06/25 02:50:41;;;;;;;1.63;0.50;;;;;;;32.63;76.31;99803.25;7393621;19;20402;-60
2023/06/25 02:53:07;;;;;;;0.47;0.30;;;;;;;32.44;76.25;99802.78;7393179;19;20009;-61
2023/06/25 02:55:34;;;;;;;2.58;0.70;;;;;;;32.47;75.21;99802.28;7393869;19;20407;-61
2023/06/25 02:58:01;;;;;;;1.85;0.55;;;;;;;32.62;73.95;99798.09;7392652;19;20642;-61
2023/06/25 03:00:28;;;;;;;1.30;0.52;;;;;;;32.42;73.96;99805.56;7393413;19;20018;-61
2023/06/25 03:02:55;;;;;;;0.10;0.10;;;;;;;32.60;72.75;99792.22;7393321;19;20014;-60
2023/06/25 03:05:21;;;;;;;0.85;0.13;;;;;;;32.75;72.02;99791.66;7393101;19;20018;-61
2023/06/25 03:07:50;;;;;;;4.40;0.38;;;;;;;32.65;71.85;99777.41;7393127;19;20391;-61
2023/06/25 03:10:16;;;;;;;1.45;0.57;;;;;;;29.68;80.78;99779.72;7392591;19;20034;-60
2023/06/25 03:12:42;;;;;;;1.42;0.43;;;;;;;23.42;100.00;99779.00;7393251;19;20010;-60
2023/06/25 03:15:09;;;;;;;0.98;0.13;;;;;;;21.86;100.00;99779.22;7393428;19;20011;-60
2023/06/25 03:17:36;;;;;;;1.70;0.50;;;;;;;21.64;100.00;99783.34;7393580;19;20031;-61
2023/06/25 03:20:03;;;;;;;4.90;0.43;;;;;;;29.43;100.00;99773.66;7391844;19;20010;-60
2023/06/25 03:22:29;;;;;;;1.13;0.35;;;;;;;31.54;85.29;99781.41;7397153;19;20022;-61
2023/06/25 03:24:56;;;;;;;0.13;0.13;;;;;;;31.92;81.22;99777.28;7392844;19;20015;-61
2023/06/25 03:27:22;;;;;;;2.20;0.77;;;;;;;24.64;100.00;99774.69;7403458;19;20371;-60
2023/06/25 03:29:49;;;;;;;0.98;0.13;;;;;;;22.20;100.00;99773.41;7399860;19;20038;-60
2023/06/25 03:32:15;;;;;;;3.63;0.50;;;;;;;27.50;100.00;99759.06;7402732;19;20066;-60
2023/06/25 03:34:41;;;;;;;2.50;0.85;;;;;;;29.67;96.53;99763.84;7398982;19;20014;-60
2023/06/25 03:37:08;;;;;;;3.70;0.45;;;;;;;30.96;86.77;99761.16;7400691;19;20022;-60
2023/06/25 03:39:35;;;;;;;7.53;1.00;;;;;;;31.16;83.97;99756.72;7400059;19;20030;-60
2023/06/25 03:42:01;;;;;;;0.38;0.22;;;;;;;31.33;82.66;99759.22;7402593;19;20022;-60
2023/06/25 03:44:27;;;;;;;0.47;0.22;;;;;;;31.42;81.47;99764.13;7399963;19;20043;-60
2023/06/25 03:46:53;;;;;;;0.55;0.55;;;;;;;31.57;79.98;99753.50;7399815;19;20026;-60
2023/06/25 03:49:20;;;;;;;2.33;0.30;;;;;;;31.81;78.26;99763.66;7398841;19;20020;-59
2023/06/25 03:51:46;;;;;;;0.45;0.25;;;;;;;31.75;76.73;99752.50;7399584;19;20341;-59
2023/06/25 03:54:13;;;;;;;2.58;0.77;;;;;;;31.75;76.50;99751.75;7399102;19;20007;-60
2023/06/25 03:56:39;;;;;;;1.63;0.45;;;;;;;31.90;75.03;99751.97;7399149;19;20014;-60
2023/06/25 03:59:05;;;;;;;1.60;0.40;;;;;;;31.95;74.64;99753.00;7398789;19;20463;-64
2023/06/25 04:01:33;;;;;;;1.55;0.57;;;;;;;31.90;73.66;99754.84;7399891;19;20014;-63
2023/06/25 04:04:00;;;;;;;1.20;0.32;;;;;;;31.78;73.77;99756.25;7398267;19;20006;-64
2023/06/25 04:06:26;;;;;;;1.30;0.63;;;;;;;26.87;94.73;99764.72;7399824;19;20015;-64
2023/06/25 04:08:52;;;;;;;1.80;0.45;;;;;;;27.04;98.85;99758.97;7399833;19;20022;-63
2023/06/25 04:11:19;;;;;;;0.63;0.30;;;;;;;21.35;100.00;99766.84;7398813;19;20007;-63
2023/06/25 04:13:45;;;;;;;1.65;0.60;;;;;;;21.54;100.00;99762.50;7398335;19;20010;-63
2023/06/25 04:16:12;;;;;;;0.93;0.13;;;;;;;21.19;100.00;99757.44;7398408;19;20487;-63
2023/06/25 04:18:41;;;;;;;6.15;1.00;;;;;;;29.07;94.61;99745.19;7398808;19;20018;-63
2023/06/25 04:21:07;;;;;;;0.68;0.35;;;;;;;31.09;88.47;99745.41;7400541;19;20347;-64
2023/06/25 04:23:34;;;;;;;2.15;0.75;;;;;;;29.55;94.37;99742.16;7398776;19;20018;-64
2023/06/25 04:26:00;;;;;;;2.92;1.05;;;;;;;30.79;85.93;99729.06;7399637;19;20011;-63
2023/06/25 04:28:26;;;;;;;0.30;0.30;;;;;;;32.90;75.10;99728.34;7398951;19;20630;-63
2023/06/25 04:30:52;;;;;;;0.20;0.20;;;;;;;31.79;76.46;99728.97;7398137;19;20010;-63
2023/06/25 04:33:20;;;;;;;6.88;0.57;;;;;;;31.38;78.77;99719.94;7397736;19;20017;-64
2023/06/25 04:35:46;;;;;;;0.45;0.30;;;;;;;31.45;78.06;99729.72;7397555;19;20014;-63
2023/06/25 04:38:12;;;;;;;1.23;0.43;;;;;;;31.39;77.92;99722.19;7397175;19;20038;-63
2023/06/25 04:40:38;;;;;;;0.75;0.43;;;;;;;31.42;77.75;99726.69;7397870;19;20458;-63
2023/06/25 04:43:06;;;;;;;1.02;0.28;;;;;;;31.51;77.54;99727.22;7399532;19;20104;-63
2023/06/25 04:45:33;;;;;;;4.03;0.50;;;;;;;31.69;76.23;99719.69;7396983;19;20014;-64
2023/06/25 04:48:00;;;;;;;0.82;0.63;;;;;;;31.61;76.78;99713.44;7399093;19;20029;-62
2023/06/25 04:50:26;;;;;;;1.27;0.30;;;;;;;32.90;73.20;99716.06;7397377;19;20343;-63
2023/06/25 04:52:55;;;;;;;2.28;0.57;;;;;;;33.98;68.17;99712.56;7399114;19;20017;-63
2023/06/25 04:55:21;;;;;;;0.75;0.32;;;;;;;34.44;65.76;99707.72;7398686;19;20028;-63
2023/06/25 04:57:47;;;;;;;2.25;0.70;;;;;;;34.19;65.71;99712.25;7398395;19;20028;-63
2023/06/25 05:00:14;;;;;;;1.25;0.30;;;;;;;34.58;63.79;99711.31;7397952;19;20006;-63
2023/06/25 05:02:40;;;;;;;2.78;0.55;;;;;;;34.31;64.03;99707.09;7402007;19;20078;-63
2023/06/25 05:05:06;;;;;;;1.20;0.35;;;;;;;34.07;64.36;99702.19;7398289;19;20066;-63
2023/06/25 05:07:32;;;;;;;1.92;0.15;;;;;;;34.03;64.13;99699.13;7397866;19;20017;-63
2023/06/25 05:09:58;;;;;;;1.85;0.32;;;;;;;34.17;63.62;99700.59;7397352;19;20006;-63
2023/06/25 05:12:24;;;;;;;1.13;0.40;;;;;;;34.06;63.45;99707.25;7401540;19;20564;-63
2023/06/25 05:14:51;;;;;;;4.55;0.60;;;;;;;34.13;63.48;99703.25;7397562;19;20018;-62
2023/06/25 05:17:17;;;;;;;1.25;0.20;;;;;;;33.89;63.41;99707.03;7398456;19;20018;-62
2023/06/25 05:19:44;;;;;;;1.88;0.98;;;;;;;32.73;68.62;99702.88;7397163;19;20014;-63
2023/06/25 05:22:10;;;;;;;2.25;0.32;;;;;;;32.02;71.43;99703.00;7401726;19;20014;-62
2023/06/25 05:24:36;;;;;;;3.72;0.40;;;;;;;32.08;71.27;99697.59;7397898;19;20022;-63
2023/06/25 05:27:03;;;;;;;1.05;0.52;;;;;;;33.54;67.78;99695.81;7399009;19;20422;-63
2023/06/25 05:29:29;;;;;;;0.75;0.20;;;;;;;34.12;65.30;99690.22;7397471;19;20010;-62
2023/06/25 05:31:55;;;;;;;1.70;0.60;;;;;;;32.42;69.77;99690.22;7398067;19;20007;-62
2023/06/25 05:34:22;;;;;;;3.35;0.70;;;;;;;33.59;67.74;99688.88;7395654;19;20014;-62
2023/06/25 05:36:48;;;;;;;7.10;0.38;;;;;;;34.15;65.06;99680.25;7395043;19;20010;-62
2023/06/25 05:39:14;;;;;;;0.70;0.32;;;;;;;32.92;66.87;99683.69;7397338;19;20447;-62
2023/06/25 05:41:40;;;;;;;0.20;0.10;;;;;;;34.01;65.25;99685.31;7399332;19;20007;-62
2023/06/25 05:44:07;;;;;;;0.43;0.10;;;;;;;34.22;63.86;99687.81;7395096;19;20031;-62
2023/06/25 05:46:33;;;;;;;1.65;0.30;;;;;;;34.00;64.44;99686.66;7395003;19;20018;-61
2023/06/25 05:48:59;;;;;;;0.57;0.32;;;;;;;33.08;67.88;99678.84;7400068;19;20050;-61
2023/06/25 05:51:25;;;;;;;1.85;0.22;;;;;;;33.56;67.04;99681.47;7392828;19;20328;-61
2023/06/25 05:53:53;;;;;;;2.58;0.40;;;;;;;33.00;67.46;99675.50;7399343;19;20011;-61
2023/06/25 05:56:19;;;;;;;1.50;0.10;;;;;;;34.64;63.21;99685.56;7396069;19;20015;-60
2023/06/25 05:58:45;;;;;;;1.00;0.50;;;;;;;34.93;61.93;99677.56;7395130;19;20014;-61
2023/06/25 06:01:11;;;;;;;0.20;0.20;;;;;;;34.81;61.49;99684.94;7395590;19;20080;-61
2023/06/25 06:03:38;;;;;;;0.38;0.38;;;;;;;34.90;61.11;99672.34;7395541;19;20014;-61
2023/06/25 06:06:04;;;;;;;1.38;0.43;;;;;;;34.89;60.56;99679.56;7398255;19;20013;-61
2023/06/25 06:08:30;;;;;;;0.35;0.10;;;;;;;33.72;62.70;99665.00;7394141;19;20011;-60
2023/06/25 06:10:57;;;;;;;0.38;0.10;;;;;;;33.71;63.06;99662.75;7394452;19;20002;-59
2023/06/25 06:13:23;;;;;;;0.40;0.40;;;;;;;35.05;59.53;99654.28;7393764;19;20015;-61
2023/06/25 06:15:49;;;;;;;0.38;0.10;;;;;;;35.29;58.46;99654.63;7394753;19;20499;-60
2023/06/25 06:18:15;;;;;;;0.70;0.20;;;;;;;35.62;57.61;99646.78;7398751;19;20014;-60
2023/06/25 06:20:41;;;;;;;1.48;0.50;;;;;;;35.51;57.56;99644.84;7395185;19;20359;-60
2023/06/25 06:23:07;;;;;;;1.55;0.10;;;;;;;35.48;57.90;99643.25;7395422;19;20014;-60
2023/06/25 06:25:33;;;;;;;0.73;0.10;;;;;;;35.18;58.43;99633.16;7394558;19;20074;-60
2023/06/25 06:27:59;;;;;;;0.32;0.30;;;;;;;35.51;57.24;99630.34;7398603;19;20002;-60
2023/06/25 06:30:25;;;;;;;2.08;0.52;;;;;;;35.80;56.78;99627.25;7394424;19;20347;-60
2023/06/25 06:32:51;;;;;;;0.55;0.10;;;;;;;35.77;56.33;99633.63;7395658;19;20006;-60
2023/06/25 06:35:18;;;;;;;0.85;0.30;;;;;;;35.86;56.01;99631.84;7393281;19;20022;-60
2023/06/25 06:37:45;;;;;;;0.30;0.13;;;;;;;36.33;55.65;99626.59;7394486;19;20034;-61
2023/06/25 06:40:11;;;;;;;0.55;0.20;;;;;;;36.53;55.16;99623.78;7394150;19;20339;-60
2023/06/25 06:42:37;;;;;;;2.28;0.40;;;;;;;36.62;54.08;99620.53;7395061;19;20007;-61
2023/06/25 06:45:03;;;;;;;0.47;0.20;;;;;;;36.87;53.82;99616.41;7394363;19;20015;-61
2023/06/25 06:47:29;;;;;;;1.02;0.15;;;;;;;36.90;53.06;99626.72;7395734;19;20014;-61
2023/06/25 06:49:55;;;;;;;1.95;0.20;;;;;;;36.92;52.75;99627.56;7391827;19;20447;-60
2023/06/25 06:52:24;;;;;;;0.65;0.20;;;;;;;37.09;53.01;99612.22;7398309;19;20017;-60
2023/06/25 06:54:50;;;;;;;0.85;0.22;;;;;;;37.01;53.48;99603.22;7392710;19;20026;-60
2023/06/25 06:57:16;;;;;;;0.15;0.15;;;;;;;36.97;52.50;99603.03;7394469;19;20143;-61
2023/06/25 06:59:45;;;;;;;0.38;0.20;;;;;;;36.91;52.99;99594.09;7392565;19;20015;-61
2023/06/25 07:02:11;;;;;;;0.50;0.10;;;;;;;36.86;53.26;99592.44;7397807;19;20007;-61
2023/06/25 07:04:38;;;;;;;0.50;0.15;;;;;;;36.47;54.29;99592.38;7394608;19;20015;-61
2023/06/25 07:07:05;;;;;;;0.50;0.05;;;;;;;36.41;54.42;99595.75;7394151;19;20074;-61
2023/06/25 07:09:32;;;;;;;0.85;0.10;;;;;;;36.11;54.93;99585.81;7394170;19;20035;-60
2023/06/25 07:11:58;;;;;;;0.85;0.10;;;;;;;36.34;54.22;99584.56;7394337;19;20365;-61
2023/06/25 07:14:24;;;;;;;0.32;0.20;;;;;;;36.24;54.28;99587.81;7394247;19;20022;-60
2023/06/25 07:16:50;;;;;;;2.58;0.40;;;;;;;35.82;53.81;99582.38;7393662;19;20011;-60
2023/06/25 07:19:16;;;;;;;0.50;0.20;;;;;;;36.13;53.81;99583.00;7394435;19;20014;-61
2023/06/25 07:21:42;;;;;;;0.65;0.20;;;;;;;36.23;53.22;99573.97;7395544;19;20010;-62
2023/06/25 07:24:08;;;;;;;0.50;0.10;;;;;;;36.27;53.36;99566.19;7392601;19;20018;-60
2023/06/25 07:26:35;;;;;;;4.30;0.60;;;;;;;35.27;55.65;99559.72;7395269;19;20038;-60
2023/06/25 07:29:01;;;;;;;0.68;0.10;;;;;;;35.72;56.50;99562.41;7393618;19;20017;-60
2023/06/25 07:31:27;;;;;;;0.75;0.25;;;;;;;36.11;55.65;99561.88;7394124;19;20014;-61
2023/06/25 07:33:53;;;;;;;0.75;0.10;;;;;;;36.46;53.76;99551.00;7393407;19;20019;-61
2023/06/25 07:36:19;;;;;;;1.92;0.17;;;;;;;36.03;54.72;99549.94;7391070;19;20363;-60
2023/06/25 07:38:45;;;;;;;0.98;0.32;;;;;;;36.32;54.91;99546.78;7393628;19;20018;-59
2023/06/25 07:41:11;;;;;;;0.77;0.25;;;;;;;36.17;53.73;99545.47;7393901;19;20021;-60
2023/06/25 07:43:38;;;;;;;1.70;0.40;;;;;;;36.45;53.88;99534.28;7393762;19;20021;-59
2023/06/25 07:46:04;;;;;;;0.40;0.00;;;;;;;36.79;52.70;99532.66;7394011;19;20044;-59
2023/06/25 07:48:30;;;;;;;1.42;0.20;;;;;;;37.21;49.85;99528.41;7397596;19;20011;-59
2023/06/25 07:50:56;;;;;;;0.63;0.10;;;;;;;37.35;50.21;99536.19;7393274;19;20010;-59
2023/06/25 07:53:22;;;;;;;2.97;0.38;;;;;;;37.69;49.79;99528.63;7392544;19;20031;-60
2023/06/25 07:55:49;;;;;;;0.63;0.20;;;;;;;37.85;49.55;99537.94;7392821;19;20484;-60
2023/06/25 07:58:15;;;;;;;1.85;0.30;;;;;;;37.83;49.27;99515.34;7392304;19;20463;-60
2023/06/25 08:00:41;;;;;;;0.95;0.38;;;;;;;37.96;49.68;99516.50;7392574;19;20070;-60
2023/06/25 08:03:07;;;;;;;0.20;0.13;;;;;;;38.26;49.50;99514.56;7392045;19;20011;-60
2023/06/25 08:05:33;;;;;;;0.13;0.13;;;;;;;38.15;49.59;99509.06;7392103;19;20050;-61
2023/06/25 08:07:59;;;;;;;1.65;0.10;;;;;;;38.60;50.50;99515.59;7391831;19;20478;-60
2023/06/25 08:10:25;;;;;;;0.13;0.10;;;;;;;38.83;50.68;99504.63;7392021;19;20489;-60
2023/06/25 08:12:54;;;;;;;0.68;0.20;;;;;;;38.78;49.91;99511.75;7398275;19;20070;-60
2023/06/25 08:15:20;;;;;;;0.43;0.20;;;;;;;38.80;50.55;99511.81;7398508;19;20014;-60
2023/06/25 08:17:47;;;;;;;1.23;0.17;;;;;;;39.08;50.37;99509.69;7400606;19;20363;-60
2023/06/25 08:20:13;;;;;;;2.30;0.52;;;;;;;38.28;52.45;99505.91;7398847;19;20018;-60
2023/06/25 08:22:39;;;;;;;4.82;0.35;;;;;;;38.92;52.29;99506.34;7399488;19;20010;-61
2023/06/25 08:25:09;;;;;;;1.95;0.10;;;;;;;39.27;51.40;99514.63;7399309;19;20007;-61
2023/06/25 08:27:35;;;;;;;0.80;0.03;;;;;;;39.49;46.98;99503.53;7402591;19;20018;-61
2023/06/25 08:30:02;;;;;;;0.28;0.10;;;;;;;39.85;48.07;99504.47;7398937;19;20020;-60
2023/06/25 08:32:28;;;;;;;2.30;0.40;;;;;;;40.23;47.19;99503.94;7402314;19;20011;-61
2023/06/25 08:34:54;;;;;;;0.30;0.15;;;;;;;39.02;47.75;99506.63;7397937;19;20007;-61
2023/06/25 08:37:20;;;;;;;0.52;0.10;;;;;;;40.01;47.58;99499.06;7400931;19;20014;-63
2023/06/25 08:39:46;;;;;;;3.55;0.20;;;;;;;40.61;45.76;99498.97;7400995;19;20018;-62
2023/06/25 08:42:12;;;;;;;0.90;0.20;;;;;;;40.40;44.73;99494.09;7401443;19;20015;-63
2023/06/25 08:44:38;;;;;;;0.95;0.10;;;;;;;40.58;44.79;99488.69;7397188;19;20010;-61
2023/06/25 08:47:08;;;;;;;3.00;0.20;;;;;;;39.70;45.37;99476.41;7400168;19;20119;-62
2023/06/25 08:49:36;;;;;;;0.47;0.00;;;;;;;40.22;43.19;99476.91;7401446;19;20375;-62
2023/06/25 08:52:02;;;;;;;0.10;0.00;;;;;;;38.55;45.76;99481.97;7397621;19;20022;-62
2023/06/25 08:54:28;;;;;;;0.95;0.05;;;;;;;38.80;45.63;99476.88;7397707;19;20011;-61
2023/06/25 08:56:54;;;;;;;1.23;0.10;;;;;;;39.73;47.46;99465.53;7398364;19;20030;-61
2023/06/25 08:59:21;;;;;;;0.60;0.10;;;;;;;39.72;46.66;99466.97;7398533;19;20030;-61
2023/06/25 09:01:47;;;;;;;0.63;0.22;;;;;;;39.76;47.30;99467.06;7399535;19;20006;-61
2023/06/25 09:04:14;;;;;;;0.52;0.13;;;;;;;39.76;44.59;99455.41;7396946;19;20006;-59
2023/06/25 09:06:40;;;;;;;0.50;0.10;;;;;;;39.91;44.86;99457.97;7398045;19;20006;-61
2023/06/25 09:09:10;;;;;;;0.30;0.10;;;;;;;40.10;44.89;99448.22;7397625;19;20047;-60
2023/06/25 09:11:43;;;;;;;1.05;0.10;;;;;;;39.83;46.74;99459.97;7398772;19;20157;-60
2023/06/25 09:14:09;;;;;;;0.75;0.30;;;;;;;39.99;43.28;99449.41;7395875;19;20010;-59
2023/06/25 09:16:49;;;;;;;5.88;0.50;;;;;;;39.95;44.32;99446.38;7398039;19;20010;-60
2023/06/25 09:19:19;;;;;;;0.80;0.20;;;;;;;40.61;43.84;99446.41;7398343;19;20014;-60
2023/06/25 09:21:46;;;;;;;1.52;0.20;;;;;;;41.05;43.58;99446.53;7399438;19;20037;-59
2023/06/25 09:24:17;;;;;;;1.33;0.30;;;;;;;41.02;43.16;99436.97;7395268;19;20018;-60
2023/06/25 09:26:51;;;;;;;1.63;0.45;;;;;;;41.12;43.02;99440.09;7399178;19;20011;-59
2023/06/25 09:29:19;;;;;;;0.80;0.20;;;;;;;40.88;43.37;99433.06;7397551;19;20489;-60
2023/06/25 09:31:47;;;;;;;2.60;0.22;;;;;;;40.65;43.11;99437.72;7397456;19;20015;-60
2023/06/25 09:34:15;;;;;;;0.57;0.30;;;;;;;40.76;41.20;99421.88;7396582;19;20043;-60
2023/06/25 09:36:42;;;;;;;1.48;0.20;;;;;;;41.15;42.36;99423.34;7396928;19;20011;-60
2023/06/25 09:39:10;;;;;;;0.40;0.20;;;;;;;41.31;41.30;99427.31;7397267;19;20010;-59
2023/06/25 09:41:40;;;;;;;0.30;0.10;;;;;;;41.56;39.89;99420.41;7396853;19;20038;-60
2023/06/25 09:44:06;;;;;;;0.43;0.35;;;;;;;41.82;41.11;99425.22;7396160;19;20480;-60
2023/06/25 09:46:34;;;;;;;5.57;0.47;;;;;;;42.07;39.46;99427.06;7396283;19;20091;-59
2023/06/25 09:49:01;;;;;;;0.55;0.20;;;;;;;42.33;39.12;99424.50;7401420;19;20394;-61
2023/06/25 09:51:50;;;;;;;0.55;0.05;;;;;;;42.39;39.82;99417.97;7396303;19;20019;-60
2023/06/25 09:54:21;;;;;;;4.28;0.35;;;;;;;42.23;38.46;99415.59;7395016;19;20470;-59
2023/06/25 09:56:49;;;;;;;0.82;0.10;;;;;;;42.15;39.51;99409.59;7397462;19;20340;-60
2023/06/25 09:59:16;;;;;;;0.82;0.35;;;;;;;41.90;38.91;99410.69;7396756;19;20034;-60
2023/06/25 10:01:42;;;;;;;0.45;0.10;;;;;;;41.61;38.57;99405.88;7398790;19;20022;-60
2023/06/25 10:04:08;;;;;;;0.55;0.10;;;;;;;41.39;38.88;99398.19;7396181;19;20014;-60
2023/06/25 10:06:35;;;;;;;1.77;0.10;;;;;;;41.44;40.62;99393.91;7394712;19;20084;-60
2023/06/25 10:09:03;;;;;;;1.48;0.20;;;;;;;41.67;39.32;99403.06;7393262;19;20521;-65
2023/06/25 10:11:30;;;;;;;2.58;0.40;;;;;;;41.80;40.02;99399.56;7396899;19;20766;-59
2023/06/25 10:13:56;;;;;;;0.00;0.00;;;;;;;41.89;42.57;99395.31;7396873;19;20030;-59
2023/06/25 10:16:23;;;;;;;3.15;0.40;;;;;;;41.99;40.73;99386.72;7396490;19;20007;-59
2023/06/25 10:18:53;;;;;;;6.55;0.20;;;;;;;41.56;40.04;99387.50;7400268;19;20010;-58
2023/06/25 10:21:22;;;;;;;0.68;0.00;;;;;;;41.80;40.54;99381.31;7397370;19;20090;-59
2023/06/25 10:24:02;;;;;;;6.88;0.57;;;;;;;42.17;38.88;99384.03;7395741;19;20352;-60
2023/06/25 10:26:30;;;;;;;0.40;0.00;;;;;;;42.01;38.90;99385.97;7397215;19;20010;-60
2023/06/25 10:29:00;;;;;;;0.40;0.25;;;;;;;42.22;38.14;99367.25;7395209;19;20019;-59
2023/06/25 10:31:37;;;;;;;;;;;;;;;42.64;38.32;99375.81;7397887;19;20015;-59
2023/06/25 10:34:08;;;;;;;1.60;0.20;;;;;;;42.98;38.13;99368.13;7391089;19;19948;-60
2023/06/25 10:36:34;;;;;;;2.15;0.15;;;;;;;43.08;40.21;99360.91;7393187;19;20018;-59
2023/06/25 10:39:01;;;;;;;0.45;0.10;;;;;;;43.44;38.90;99358.25;7393069;19;20011;-59
2023/06/25 10:41:28;;;;;;;0.20;0.10;;;;;;;43.29;37.07;99354.50;7395114;19;20015;-62
2023/06/25 10:43:56;;;;;;;1.30;0.10;;;;;;;42.94;36.63;99349.78;7392817;19;20380;-59
2023/06/25 10:46:30;;;;;;;1.13;0.20;;;;;;;42.65;37.71;99354.59;7393155;19;20018;-60
2023/06/25 10:48:59;;;;;;;0.65;0.10;;;;;;;42.59;37.70;99351.59;7396733;19;20074;-61
2023/06/25 10:51:26;;;;;;;0.30;0.10;;;;;;;42.61;36.71;99342.09;7393998;19;20011;-62
2023/06/25 10:53:55;;;;;;;1.35;0.20;;;;;;;42.71;36.85;99348.78;7395174;19;20034;-61
2023/06/25 10:56:22;;;;;;;;;;;;;;;42.81;35.86;99339.38;7395314;19;20500;-61
2023/06/25 10:58:56;;;;;;;0.47;0.10;;;;;;;42.86;36.22;99341.63;7394609;19;19931;-60
2023/06/25 11:01:22;;;;;;;0.30;0.20;;;;;;;42.76;35.49;99335.66;7395903;19;20078;-61
2023/06/25 11:03:48;;;;;;;0.57;0.10;;;;;;;42.79;35.30;99327.63;7392292;19;20310;-61
2023/06/25 11:06:15;;;;;;;3.22;0.82;;;;;;;42.90;34.59;99317.50;7392018;19;20026;-60
2023/06/25 11:08:42;;;;;;;2.45;0.10;;;;;;;42.73;34.65;99319.50;7394157;19;20015;-62
2023/06/25 11:11:08;;;;;;;2.83;0.40;;;;;;;42.75;35.36;99322.47;7394641;19;20014;-63
2023/06/25 11:13:34;;;;;;;1.08;0.10;;;;;;;41.81;36.53;99319.16;7393460;19;20820;-62
2023/06/25 11:16:00;;;;;;;0.80;0.20;;;;;;;40.80;38.25;99310.94;7392544;19;20011;-63
2023/06/25 11:18:27;;;;;;;1.48;0.28;;;;;;;40.26;38.77;99315.75;7397347;19;20014;-63
2023/06/25 11:20:53;;;;;;;0.35;0.10;;;;;;;39.91;39.74;99320.88;7394004;19;20019;-61
2023/06/25 11:23:20;;;;;;;0.98;0.30;;;;;;;41.57;37.51;99321.72;7393778;19;20019;-61
2023/06/25 11:25:46;;;;;;;3.42;0.55;;;;;;;41.97;36.53;99315.69;7393215;19;20017;-61
2023/06/25 11:28:15;;;;;;;2.17;0.47;;;;;;;42.23;36.52;99313.13;7392637;19;20066;-60
2023/06/25 11:30:44;;;;;;;0.90;0.20;;;;;;;41.49;37.69;99307.72;7393515;19;20039;-62